createdAt,value
2018-10-18T00:01:35.821Z,98801.22
2018-10-18T00:04:06.660Z,98798.05
2018-10-18T00:06:37.447Z,98796.73
2018-10-18T00:09:11.496Z,98798.33
2018-10-18T00:11:42.231Z,98793.62
2018-10-18T00:14:12.788Z,98792.59
2018-10-18T00:16:43.574Z,98781.02
2018-10-18T00:19:14.507Z,98785.45
2018-10-18T00:21:45.276Z,98781.70
2018-10-18T00:24:16.233Z,98774.48
2018-10-18T00:26:47.146Z,98770.33
2018-10-18T00:29:18.263Z,98766.38
2018-10-18T00:31:49.512Z,98765.48
2018-10-18T00:34:20.346Z,98769.28
2018-10-18T00:36:52.932Z,98766.69
2018-10-18T00:39:23.694Z,98764.38
2018-10-18T00:41:54.780Z,98764.92
2018-10-18T00:44:25.715Z,98761.19
2018-10-18T00:46:56.501Z,98761.70
2018-10-18T00:49:27.419Z,98761.00
2018-10-18T00:51:58.130Z,98751.43
2018-10-18T00:54:28.834Z,98753.84
2018-10-18T00:56:59.585Z,98748.64
2018-10-18T00:59:30.482Z,98746.88
2018-10-18T01:02:01.234Z,98745.48
2018-10-18T01:04:32.215Z,98740.15
2018-10-18T01:07:03.138Z,98744.85
2018-10-18T01:09:33.868Z,98741.16
2018-10-18T01:12:04.627Z,98743.70
2018-10-18T01:14:35.365Z,98735.63
2018-10-18T01:17:06.540Z,98732.02
2018-10-18T01:19:40.400Z,98722.59
2018-10-18T01:22:11.462Z,98724.30
2018-10-18T01:24:42.171Z,98724.36
2018-10-18T01:27:12.938Z,98719.58
2018-10-18T01:29:43.866Z,98710.80
2018-10-18T01:32:15.034Z,98714.15
2018-10-18T01:34:45.891Z,98714.77
2018-10-18T01:37:16.582Z,98714.20
2018-10-18T01:39:47.544Z,98717.84
2018-10-18T01:42:24.922Z,98709.92
2018-10-18T01:44:56.007Z,98715.19
2018-10-18T01:47:26.924Z,98714.16
2018-10-18T01:49:57.852Z,98716.55
2018-10-18T01:52:28.643Z,98705.20
2018-10-18T01:54:59.348Z,98702.58
2018-10-18T01:57:30.117Z,98701.41
2018-10-18T02:00:01.780Z,98702.96
2018-10-18T02:02:32.601Z,98708.72
2018-10-18T02:05:03.482Z,98706.81
2018-10-18T02:07:34.132Z,98706.72
2018-10-18T02:10:04.813Z,98704.09
2018-10-18T02:12:35.506Z,98697.80
2018-10-18T02:15:06.629Z,98695.19
2018-10-18T02:17:37.078Z,98693.77
2018-10-18T02:20:09.240Z,98694.59
2018-10-18T02:22:40.421Z,98689.47
2018-10-18T02:25:14.204Z,98686.38
2018-10-18T02:27:44.830Z,98685.67
2018-10-18T02:30:15.819Z,98684.50
2018-10-18T02:32:46.613Z,98675.08
2018-10-18T02:35:17.353Z,98679.49
2018-10-18T02:37:48.013Z,98681.03
2018-10-18T02:40:18.687Z,98680.05
2018-10-18T02:42:49.325Z,98672.45
2018-10-18T02:45:19.914Z,98670.58
2018-10-18T02:47:50.665Z,98662.69
2018-10-18T02:50:21.319Z,98666.91
2018-10-18T02:52:52.101Z,98676.38
2018-10-18T02:55:22.849Z,98669.02
2018-10-18T02:57:53.742Z,98667.13
2018-10-18T03:00:24.495Z,98671.20
2018-10-18T03:02:55.532Z,98671.54
2018-10-18T03:05:26.343Z,98678.70
2018-10-18T03:07:57.256Z,98676.69
2018-10-18T03:10:28.159Z,98670.00
2018-10-18T03:12:58.992Z,98673.83
2018-10-18T03:15:29.941Z,98670.73
2018-10-18T03:18:01.103Z,98673.13
2018-10-18T03:20:32.665Z,98673.63
2018-10-18T03:23:03.388Z,98676.16
2018-10-18T03:25:35.037Z,98675.31
2018-10-18T03:28:05.824Z,98668.89
2018-10-18T03:30:36.576Z,98672.96
2018-10-18T03:33:07.495Z,98671.41
2018-10-18T03:35:38.283Z,98676.66
2018-10-18T03:41:13.102Z,98672.49
2018-10-18T03:44:00.217Z,98678.71
2018-10-18T03:46:31.259Z,98676.22
2018-10-18T03:49:03.475Z,98675.38
2018-10-18T03:51:34.705Z,98675.62
2018-10-18T03:54:18.042Z,98675.14
2018-10-18T03:56:51.394Z,98666.44
2018-10-18T03:59:22.330Z,98674.07
2018-10-18T04:01:53.150Z,98669.13
2018-10-18T04:04:23.857Z,98666.63
2018-10-18T04:06:55.609Z,98672.13
2018-10-18T04:09:43.656Z,98667.85
2018-10-18T04:12:14.294Z,98673.25
2018-10-18T04:14:45.156Z,98676.34
2018-10-18T04:17:16.917Z,98676.34
2018-10-18T04:19:54.480Z,98673.25
2018-10-18T04:22:25.305Z,98668.34
2018-10-18T04:24:57.024Z,98670.47
2018-10-18T04:27:27.930Z,98668.46
2018-10-18T04:29:58.734Z,98666.55
2018-10-18T04:32:29.449Z,98672.70
2018-10-18T04:35:00.326Z,98677.82
2018-10-18T04:37:31.188Z,98680.41
2018-10-18T04:40:02.036Z,98681.23
2018-10-18T04:42:59.740Z,98669.16
2018-10-18T04:45:30.527Z,98666.55
2018-10-18T04:48:01.405Z,98666.30
2018-10-18T04:50:33.152Z,98669.27
2018-10-18T04:53:04.322Z,98666.91
2018-10-18T04:55:35.239Z,98661.06
2018-10-18T04:58:08.244Z,98664.26
2018-10-18T05:00:39.227Z,98665.56
2018-10-18T05:03:10.317Z,98676.29
2018-10-18T05:05:59.310Z,98676.29
2018-10-18T05:08:30.723Z,98671.05
2018-10-18T05:11:01.668Z,98675.92
2018-10-18T05:13:32.305Z,98675.95
2018-10-18T05:16:03.479Z,98679.05
2018-10-18T05:18:34.463Z,98673.00
2018-10-18T05:21:05.339Z,98671.45
2018-10-18T05:23:36.234Z,98668.96
2018-10-18T05:26:07.363Z,98673.36
2018-10-18T05:28:40.121Z,98670.98
2018-10-18T05:31:11.206Z,98674.80
2018-10-18T05:33:42.116Z,98681.59
2018-10-18T05:36:12.948Z,98681.49
2018-10-18T05:38:43.936Z,98676.83
2018-10-18T05:41:14.980Z,98674.91
2018-10-18T05:43:46.361Z,98670.74
2018-10-18T05:46:17.292Z,98668.83
2018-10-18T05:48:50.024Z,98670.38
2018-10-18T05:51:20.797Z,98673.44
2018-10-18T05:53:52.609Z,98682.01
2018-10-18T05:56:24.093Z,98676.49
2018-10-18T05:58:55.330Z,98675.23
2018-10-18T06:01:26.235Z,98680.52
2018-10-18T06:03:57.146Z,98679.47
2018-10-18T06:06:27.941Z,98686.86
2018-10-18T06:08:58.776Z,98685.48
2018-10-18T06:11:31.898Z,98685.17
2018-10-18T06:14:02.901Z,98684.08
2018-10-18T06:16:34.058Z,98675.84
2018-10-18T06:19:05.012Z,98683.58
2018-10-18T06:21:35.941Z,98681.28
2018-10-18T06:24:07.743Z,98685.88
2018-10-18T06:26:38.727Z,98687.03
2018-10-18T06:29:09.662Z,98686.53
2018-10-18T06:31:42.484Z,98677.61
2018-10-18T06:34:13.614Z,98681.20
2018-10-18T06:36:44.858Z,98680.08
2018-10-18T06:39:16.773Z,98677.36
2018-10-18T06:41:48.058Z,98683.48
2018-10-18T06:44:18.959Z,98685.82
2018-10-18T06:46:50.431Z,98680.36
2018-10-18T06:49:21.199Z,98693.80
2018-10-18T06:51:52.506Z,98704.84
2018-10-18T06:54:23.276Z,98704.84
2018-10-18T06:56:54.086Z,98704.53
2018-10-18T06:59:24.822Z,98698.16
2018-10-18T07:01:55.744Z,98697.80
2018-10-18T07:04:26.865Z,98697.69
2018-10-18T07:06:57.572Z,98692.73
2018-10-18T07:09:28.600Z,98695.95
2018-10-18T07:11:59.588Z,98691.45
2018-10-18T07:14:30.736Z,98697.42
2018-10-18T07:17:01.507Z,98700.13
2018-10-18T07:19:32.245Z,98692.59
2018-10-18T07:22:03.369Z,98701.45
2018-10-18T07:24:35.049Z,98699.80
2018-10-18T07:27:06.948Z,98708.88
2018-10-18T07:29:37.994Z,98712.50
2018-10-18T07:32:09.310Z,98710.38
2018-10-18T07:34:40.126Z,98702.11
2018-10-18T07:37:11.145Z,98705.89
2018-10-18T07:39:41.987Z,98715.17
2018-10-18T07:42:12.880Z,98717.55
2018-10-18T07:44:43.913Z,98720.31
2018-10-18T07:47:15.287Z,98718.58
2018-10-18T07:49:46.647Z,98721.55
2018-10-18T07:52:17.640Z,98717.84
2018-10-18T07:54:48.630Z,98715.44
2018-10-18T07:57:19.608Z,98705.53
2018-10-18T07:59:50.665Z,98708.55
2018-10-18T08:02:21.657Z,98712.53
2018-10-18T08:04:52.416Z,98716.10
2018-10-18T08:07:23.482Z,98723.50
2018-10-18T08:09:55.346Z,98717.91
2018-10-18T08:12:26.505Z,98720.18
2018-10-18T08:14:57.336Z,98728.59
2018-10-18T08:17:28.490Z,98723.86
2018-10-18T08:19:59.475Z,98712.63
2018-10-18T08:22:30.652Z,98713.15
2018-10-18T08:25:01.829Z,98709.86
2018-10-18T08:27:32.700Z,98713.77
2018-10-18T08:30:03.834Z,98708.79
2018-10-18T08:32:35.091Z,98710.69
2018-10-18T08:35:06.619Z,98702.30
2018-10-18T08:37:37.900Z,98702.52
2018-10-18T08:40:10.337Z,98698.13
2018-10-18T08:42:41.921Z,98698.54
2018-10-18T08:45:13.193Z,98696.47
2018-10-18T08:47:44.814Z,98699.78
2018-10-18T08:50:16.026Z,98692.84
2018-10-18T08:52:48.023Z,98686.06
2018-10-18T08:55:19.895Z,98679.04
2018-10-18T08:57:51.264Z,98691.97
2018-10-18T09:00:22.201Z,98687.69
2018-10-18T09:02:53.673Z,98687.08
2018-10-18T09:05:25.200Z,98684.06
2018-10-18T09:07:56.407Z,98682.59
2018-10-18T09:10:27.736Z,98677.14
2018-10-18T09:12:59.003Z,98677.88
2018-10-18T09:15:30.180Z,98679.50
2018-10-18T09:18:01.269Z,98678.05
2018-10-18T09:20:32.123Z,98677.23
2018-10-18T09:23:03.492Z,98669.41
2018-10-18T09:25:35.826Z,98671.13
2018-10-18T09:28:06.918Z,98665.19
2018-10-18T09:30:38.165Z,98665.25
2018-10-18T09:33:09.312Z,98665.89
2018-10-18T09:35:40.452Z,98668.95
2018-10-18T09:38:11.494Z,98667.52
2018-10-18T09:40:42.514Z,98652.81
2018-10-18T09:43:13.402Z,98655.83
2018-10-18T09:45:44.302Z,98653.79
2018-10-18T09:48:15.647Z,98659.53
2018-10-18T09:50:46.612Z,98657.17
2018-10-18T09:53:17.710Z,98658.36
2018-10-18T09:55:48.988Z,98658.08
2018-10-18T09:58:20.249Z,98654.02
2018-10-18T10:00:56.258Z,98648.44
2018-10-18T10:03:27.189Z,98652.64
2018-10-18T10:05:58.022Z,98651.20
2018-10-18T10:08:28.913Z,98652.91
2018-10-18T10:10:59.895Z,98649.52
2018-10-18T10:13:31.153Z,98653.09
2018-10-18T10:16:02.289Z,98645.36
2018-10-18T10:18:33.627Z,98637.18
2018-10-18T10:21:04.450Z,98642.97
2018-10-18T10:23:35.344Z,98629.78
2018-10-18T10:26:06.294Z,98632.78
2018-10-18T10:28:37.767Z,98626.52
2018-10-18T10:31:09.341Z,98639.14
2018-10-18T10:33:40.295Z,98635.38
2018-10-18T10:36:10.998Z,98632.38
2018-10-18T10:38:41.854Z,98627.77
2018-10-18T10:41:12.870Z,98623.93
2018-10-18T10:43:44.295Z,98614.66
2018-10-18T10:46:15.512Z,98607.55
2018-10-18T10:48:46.413Z,98601.85
2018-10-18T10:51:17.577Z,98598.66
2018-10-18T10:53:48.694Z,98598.03
2018-10-18T10:56:19.952Z,98598.36
2018-10-18T10:58:51.273Z,98590.14
2018-10-18T11:01:23.967Z,98583.37
2018-10-18T11:03:57.471Z,98585.00
2018-10-18T11:06:29.338Z,98581.26
2018-10-18T11:09:00.575Z,98575.22
2018-10-18T11:11:32.013Z,98571.45
2018-10-18T11:14:03.113Z,98572.73
2018-10-18T11:16:34.184Z,98569.39
2018-10-18T11:19:05.764Z,98559.16
2018-10-18T11:21:36.870Z,98560.36
2018-10-18T11:24:08.356Z,98565.73
2018-10-18T11:26:39.731Z,98562.33
2018-10-18T11:29:11.162Z,98551.11
2018-10-18T11:31:44.110Z,98554.91
2018-10-18T11:34:16.488Z,98543.78
2018-10-18T11:36:47.498Z,98541.05
2018-10-18T11:39:18.402Z,98532.05
2018-10-18T11:41:49.321Z,98534.48
2018-10-18T11:44:24.398Z,98535.61
2018-10-18T11:46:55.236Z,98531.53
2018-10-18T11:49:26.376Z,98531.54
2018-10-18T11:51:57.402Z,98522.22
2018-10-18T11:54:28.456Z,98529.89
2018-10-18T11:57:00.426Z,98513.93
2018-10-18T11:59:31.329Z,98521.02
2018-10-18T12:02:02.478Z,98517.05
2018-10-18T12:04:33.287Z,98517.95
2018-10-18T12:07:04.178Z,98510.60
2018-10-18T12:09:35.026Z,98517.53
2018-10-18T12:12:06.007Z,98507.11
2018-10-18T12:14:37.086Z,98512.48
2018-10-18T12:17:08.237Z,98505.38
2018-10-18T12:19:39.183Z,98506.89
2018-10-18T12:22:10.039Z,98502.86
2018-10-18T12:24:41.025Z,98514.44
2018-10-18T12:27:12.152Z,98506.53
2018-10-18T12:29:44.072Z,98504.98
2018-10-18T12:32:15.150Z,98508.78
2018-10-18T12:34:46.327Z,98503.42
2018-10-18T12:37:17.580Z,98505.66
2018-10-18T12:39:48.928Z,98496.95
2018-10-18T12:42:19.989Z,98500.11
2018-10-18T12:44:51.272Z,98500.28
2018-10-18T12:47:22.371Z,98507.87
2018-10-18T12:49:53.601Z,98504.65
2018-10-18T12:52:25.182Z,98493.19
2018-10-18T12:54:56.350Z,98492.94
2018-10-18T12:57:27.439Z,98500.52
2018-10-18T12:59:58.918Z,98494.47
2018-10-18T13:02:29.953Z,98496.88
2018-10-18T13:05:01.136Z,98496.70
2018-10-18T13:10:02.646Z,98501.01
2018-10-18T13:12:34.411Z,98494.70
2018-10-18T13:15:05.603Z,98499.09
2018-10-18T13:17:36.696Z,98490.19
2018-10-18T13:20:08.970Z,98494.00
2018-10-18T13:22:40.812Z,98481.17
2018-10-18T13:25:12.659Z,98478.00
2018-10-18T13:27:43.672Z,98477.92
2018-10-18T13:30:14.764Z,98480.98
2018-10-18T13:32:46.077Z,98474.28
2018-10-18T13:35:17.683Z,98464.39
2018-10-18T13:37:48.568Z,98467.25
2018-10-18T13:40:19.949Z,98465.32
2018-10-18T13:42:50.905Z,98459.95
2018-10-18T13:45:21.991Z,98450.71
2018-10-18T13:47:53.827Z,98455.16
2018-10-18T13:50:26.482Z,98449.06
2018-10-18T13:52:57.837Z,98449.89
2018-10-18T13:55:29.968Z,98448.41
2018-10-18T13:58:01.000Z,98440.86
2018-10-18T14:00:32.755Z,98438.99
2018-10-18T14:03:03.834Z,98428.28
2018-10-18T14:05:34.800Z,98437.25
2018-10-18T14:08:06.177Z,98436.91
2018-10-18T14:10:37.199Z,98440.80
2018-10-18T14:13:08.113Z,98438.77
2018-10-18T14:15:39.895Z,98436.98
2018-10-18T14:18:10.740Z,98437.08
2018-10-18T14:20:42.582Z,98436.27
2018-10-18T14:23:13.714Z,98438.99
2018-10-18T14:25:44.572Z,98433.36
2018-10-18T14:28:16.004Z,98432.87
2018-10-18T14:30:46.899Z,98433.35
2018-10-18T14:33:18.250Z,98423.56
2018-10-18T14:35:49.750Z,98420.16
2018-10-18T14:38:22.201Z,98429.06
2018-10-18T14:40:53.359Z,98427.18
2018-10-18T14:43:24.968Z,98422.19
2018-10-18T14:45:56.850Z,98424.25
2018-10-18T14:48:27.824Z,98423.30
2018-10-18T14:50:59.255Z,98423.64
2018-10-18T14:53:30.183Z,98426.78
2018-10-18T14:56:00.870Z,98424.16
2018-10-18T14:58:32.801Z,98424.39
2018-10-18T15:01:03.786Z,98428.02
2018-10-18T15:03:34.614Z,98426.20
2018-10-18T15:06:06.103Z,98419.06
2018-10-18T15:08:37.034Z,98433.73
2018-10-18T15:11:09.161Z,98432.37
2018-10-18T15:13:40.254Z,98437.55
2018-10-18T15:16:11.171Z,98434.79
2018-10-18T15:18:44.188Z,98431.52
2018-10-18T15:21:16.464Z,98434.16
2018-10-18T15:23:47.725Z,98438.33
2018-10-18T15:26:18.922Z,98432.54
2018-10-18T15:28:50.384Z,98434.33
2018-10-18T15:31:22.026Z,98435.60
2018-10-18T15:33:53.281Z,98437.02
2018-10-18T15:36:24.071Z,98434.98
2018-10-18T15:38:55.206Z,98435.12
2018-10-18T15:41:26.028Z,98434.36
2018-10-18T15:43:56.900Z,98426.62
2018-10-18T15:46:27.795Z,98424.90
2018-10-18T15:48:58.442Z,98422.25
2018-10-18T15:51:29.394Z,98419.61
2018-10-18T15:54:00.762Z,98420.67
2018-10-18T15:56:31.729Z,98420.79
2018-10-18T15:59:02.460Z,98423.39
2018-10-18T16:01:33.220Z,98429.41
2018-10-18T16:04:04.207Z,98434.88
2018-10-18T16:06:35.027Z,98438.11
2018-10-18T16:09:09.578Z,98434.54
2018-10-18T16:11:40.778Z,98439.00
2018-10-18T16:14:11.832Z,98437.56
2018-10-18T16:16:42.662Z,98438.81
2018-10-18T16:19:13.391Z,98439.58
2018-10-18T16:21:44.570Z,98450.01
2018-10-18T16:24:15.621Z,98445.53
2018-10-18T16:26:46.343Z,98446.22
2018-10-18T16:29:17.515Z,98441.82
2018-10-18T16:31:49.176Z,98446.13
2018-10-18T16:34:20.260Z,98453.75
2018-10-18T16:36:51.368Z,98460.66
2018-10-18T16:39:22.452Z,98462.15
2018-10-18T16:41:53.357Z,98470.80
2018-10-18T16:44:24.535Z,98468.40
2018-10-18T16:46:55.654Z,98478.53
2018-10-18T16:49:26.775Z,98478.61
2018-10-18T16:51:58.982Z,98477.25
2018-10-18T16:54:31.026Z,98469.33
2018-10-18T16:57:01.939Z,98469.77
2018-10-18T16:59:33.311Z,98475.42
2018-10-18T17:02:04.656Z,98473.55
2018-10-18T17:04:35.390Z,98480.80
2018-10-18T17:07:06.633Z,98483.22
2018-10-18T17:09:37.916Z,98489.16
2018-10-18T17:12:09.400Z,98490.52
2018-10-18T17:14:40.512Z,98489.72
2018-10-18T17:17:12.043Z,98496.20
2018-10-18T17:19:43.887Z,98504.89
2018-10-18T17:22:14.978Z,98509.07
2018-10-18T17:24:45.871Z,98511.84
2018-10-18T17:27:17.514Z,98522.73
2018-10-18T17:29:48.424Z,98518.63
2018-10-18T17:32:19.644Z,98517.66
2018-10-18T17:34:50.576Z,98518.38
2018-10-18T17:37:21.810Z,98528.53
2018-10-18T17:39:52.954Z,98531.46
2018-10-18T17:42:24.097Z,98536.01
2018-10-18T17:44:55.275Z,98545.83
2018-10-18T17:47:27.884Z,98545.37
2018-10-18T17:49:59.412Z,98547.22
2018-10-18T17:52:31.787Z,98548.39
2018-10-18T17:55:04.069Z,98541.42
2018-10-18T17:57:34.996Z,98536.63
2018-10-18T18:00:11.097Z,98536.35
2018-10-18T18:02:42.354Z,98541.66
2018-10-18T18:05:14.522Z,98542.16
2018-10-18T18:07:45.805Z,98546.78
2018-10-18T18:10:18.773Z,98556.47
2018-10-18T18:12:49.817Z,98564.48
2018-10-18T18:15:20.849Z,98561.74
2018-10-18T18:17:52.007Z,98568.78
2018-10-18T18:20:23.261Z,98572.27
2018-10-18T18:22:54.664Z,98568.98
2018-10-18T18:25:25.940Z,98570.02
2018-10-18T18:27:58.335Z,98573.18
2018-10-18T18:30:29.598Z,98577.35
2018-10-18T18:33:00.936Z,98584.11
2018-10-18T18:35:32.795Z,98581.16
2018-10-18T18:38:05.842Z,98579.69
2018-10-18T18:40:37.578Z,98581.68
2018-10-18T18:43:08.912Z,98590.63
2018-10-18T18:45:44.843Z,98590.63
2018-10-18T18:48:20.923Z,98600.58
2018-10-18T18:51:00.087Z,98604.39
2018-10-18T18:53:40.534Z,98605.23
2018-10-18T18:56:16.732Z,98603.58
2018-10-18T18:58:48.712Z,98606.41
2018-10-18T19:01:27.414Z,98608.72
2018-10-18T19:04:00.904Z,98614.85
2018-10-18T19:06:34.964Z,98612.69
2018-10-18T19:09:11.949Z,98614.64
2018-10-18T19:11:44.178Z,98611.81
2018-10-18T19:14:17.936Z,98612.78
2018-10-18T19:16:52.205Z,98608.01
2018-10-18T19:19:26.018Z,98611.14
2018-10-18T19:21:59.910Z,98613.13
2018-10-18T19:24:32.364Z,98613.30
2018-10-18T19:27:04.386Z,98617.09
2018-10-18T19:29:38.170Z,98616.75
2018-10-18T19:32:09.752Z,98615.90
2018-10-18T19:34:43.164Z,98611.77
2018-10-18T19:37:15.292Z,98608.60
2018-10-18T19:39:48.900Z,98622.50
2018-10-18T19:42:20.354Z,98625.97
2018-10-18T19:44:52.167Z,98628.61
2018-10-18T19:47:23.840Z,98620.65
2018-10-18T19:49:55.680Z,98620.77
2018-10-18T19:52:27.156Z,98625.53
2018-10-18T19:54:58.187Z,98619.73
2018-10-18T19:57:30.771Z,98623.50
2018-10-18T20:00:02.417Z,98631.02
2018-10-18T20:02:33.818Z,98627.66
2018-10-18T20:05:05.661Z,98633.89
2018-10-18T20:07:37.271Z,98635.17
2018-10-18T20:10:09.742Z,98635.31
2018-10-18T20:12:41.341Z,98638.25
2018-10-18T20:15:13.732Z,98644.34
2018-10-18T20:17:45.907Z,98643.52
2018-10-18T20:20:17.962Z,98650.28
2018-10-18T20:22:50.870Z,98654.59
2018-10-18T20:25:22.201Z,98654.91
2018-10-18T20:27:53.587Z,98654.59
2018-10-18T20:30:26.117Z,98650.63
2018-10-18T20:32:58.505Z,98656.59
2018-10-18T20:35:30.726Z,98655.75
2018-10-18T20:38:03.507Z,98659.05
2018-10-18T20:40:35.010Z,98659.50
2018-10-18T20:43:06.301Z,98663.08
2018-10-18T20:45:37.756Z,98664.38
2018-10-18T20:48:09.404Z,98666.19
2018-10-18T20:50:40.868Z,98669.59
2018-10-18T20:53:14.175Z,98673.23
2018-10-18T20:55:45.783Z,98677.20
2018-10-18T20:58:17.656Z,98683.45
2018-10-18T21:00:49.157Z,98689.76
2018-10-18T21:03:22.042Z,98682.80
2018-10-18T21:05:53.272Z,98689.89
2018-10-18T21:08:29.837Z,98691.05
2018-10-18T21:11:02.845Z,98689.05
2018-10-18T21:13:34.012Z,98691.70
2018-10-18T21:16:10.410Z,98696.14
2018-10-18T21:18:42.140Z,98691.34
2018-10-18T21:21:13.523Z,98689.70
2018-10-18T21:23:44.820Z,98690.83
2018-10-18T21:26:23.332Z,98690.95
2018-10-18T21:28:54.762Z,98695.03
2018-10-18T21:31:25.710Z,98703.77
2018-10-18T21:33:57.690Z,98699.77
2018-10-18T21:36:28.824Z,98698.92
2018-10-18T21:39:00.071Z,98701.89
2018-10-18T21:41:31.092Z,98702.81
2018-10-18T21:44:02.153Z,98711.17
2018-10-18T21:46:33.130Z,98711.74
2018-10-18T21:49:05.090Z,98714.19
2018-10-18T21:51:36.038Z,98713.14
2018-10-18T21:54:07.996Z,98716.02
2018-10-18T21:56:38.853Z,98713.77
2018-10-18T21:59:09.902Z,98716.00
2018-10-18T22:01:43.740Z,98721.02
2018-10-18T22:04:14.811Z,98720.36
2018-10-18T22:06:46.084Z,98720.42
2018-10-18T22:09:17.209Z,98717.88
2018-10-18T22:11:48.078Z,98720.59
2018-10-18T22:14:19.273Z,98727.77
2018-10-18T22:16:50.886Z,98726.59
2018-10-18T22:19:21.680Z,98723.55
2018-10-18T22:21:52.380Z,98726.07
2018-10-18T22:24:23.251Z,98720.41
2018-10-18T22:26:54.135Z,98717.42
2018-10-18T22:29:24.987Z,98714.34
2018-10-18T22:31:55.868Z,98718.23
2018-10-18T22:34:26.609Z,98722.64
2018-10-18T22:36:57.500Z,98723.44
2018-10-18T22:39:28.434Z,98726.91
2018-10-18T22:41:59.201Z,98728.17
2018-10-18T22:44:30.085Z,98729.77
2018-10-18T22:47:01.252Z,98727.91
2018-10-18T22:49:32.103Z,98719.94
2018-10-18T22:52:03.495Z,98718.98
2018-10-18T22:54:34.209Z,98718.94
2018-10-18T22:57:05.171Z,98721.56
2018-10-18T22:59:36.008Z,98725.09
2018-10-18T23:02:13.368Z,98729.41
2018-10-18T23:04:44.606Z,98729.63
2018-10-18T23:07:15.541Z,98729.95
2018-10-18T23:09:46.496Z,98725.53
2018-10-18T23:12:17.557Z,98721.88
2018-10-18T23:14:48.621Z,98724.98
2018-10-18T23:17:19.746Z,98722.72
2018-10-18T23:19:50.714Z,98731.78
2018-10-18T23:22:21.574Z,98728.17
2018-10-18T23:24:53.434Z,98733.17
2018-10-18T23:27:23.348Z,98737.81
2018-10-18T23:29:54.575Z,98738.88
2018-10-18T23:32:25.378Z,98739.27
2018-10-18T23:34:56.207Z,98736.16
2018-10-18T23:37:26.993Z,98735.62
2018-10-18T23:39:57.724Z,98737.89
2018-10-18T23:42:28.515Z,98740.19
2018-10-18T23:44:59.158Z,98738.44
2018-10-18T23:47:29.761Z,98732.48
2018-10-18T23:50:00.247Z,98738.00
2018-10-18T23:52:31.083Z,98739.60
2018-10-18T23:55:01.905Z,98742.08
2018-10-18T23:57:32.620Z,98737.87
